createdAt,value
2018-09-12T00:01:12.988Z,3.00
2018-09-12T00:03:42.301Z,2.90
2018-09-12T00:06:11.600Z,2.60
2018-09-12T00:08:40.913Z,2.90
2018-09-12T00:11:10.218Z,2.63
2018-09-12T00:13:39.533Z,2.80
2018-09-12T00:16:08.837Z,2.90
2018-09-12T00:18:38.206Z,2.90
2018-09-12T00:21:08.726Z,2.70
2018-09-12T00:23:37.994Z,3.07
2018-09-12T00:26:07.386Z,2.87
2018-09-12T00:28:37.054Z,2.97
2018-09-12T00:31:06.682Z,2.77
2018-09-12T00:33:36.038Z,2.93
2018-09-12T00:36:05.354Z,3.00
2018-09-12T00:38:34.657Z,2.90
2018-09-12T00:41:03.964Z,3.03
2018-09-12T00:43:33.271Z,3.00
2018-09-12T00:46:02.568Z,3.00
2018-09-12T00:48:31.873Z,2.87
2018-09-12T00:51:01.187Z,2.80
2018-09-12T00:53:30.510Z,3.00
2018-09-12T00:55:59.827Z,3.20
2018-09-12T00:58:29.145Z,3.30
2018-09-12T01:00:58.489Z,3.10
2018-09-12T01:03:27.794Z,2.97
2018-09-12T01:05:57.397Z,2.77
2018-09-12T01:08:26.704Z,2.90
2018-09-12T01:10:56.116Z,3.10
2018-09-12T01:13:25.400Z,3.10
2018-09-12T01:15:54.860Z,3.00
2018-09-12T01:18:24.177Z,2.80
2018-09-12T01:20:53.717Z,3.17
2018-09-12T01:23:23.083Z,3.00
2018-09-12T01:25:52.881Z,3.27
2018-09-12T01:28:22.209Z,2.90
2018-09-12T01:30:51.535Z,3.10
2018-09-12T01:33:20.849Z,3.27
2018-09-12T01:35:50.162Z,2.90
2018-09-12T01:38:19.518Z,2.97
2018-09-12T01:40:48.828Z,3.00
2018-09-12T01:43:18.139Z,3.10
2018-09-12T01:45:47.541Z,3.20
2018-09-12T01:48:16.831Z,3.13
2018-09-12T01:50:46.250Z,2.90
2018-09-12T01:53:15.869Z,3.10
2018-09-12T01:55:45.184Z,3.20
2018-09-12T01:58:14.521Z,3.10
2018-09-12T02:00:43.874Z,3.00
2018-09-12T02:03:13.201Z,3.20
2018-09-12T02:05:42.521Z,3.23
2018-09-12T02:08:11.834Z,3.27
2018-09-12T02:10:41.193Z,3.57
2018-09-12T02:13:10.509Z,3.10
2018-09-12T02:15:39.823Z,3.07
2018-09-12T02:18:09.160Z,2.90
2018-09-12T02:20:38.582Z,3.67
2018-09-12T02:23:07.891Z,3.10
2018-09-12T02:25:37.217Z,3.23
2018-09-12T02:28:06.602Z,3.60
2018-09-12T02:30:36.093Z,3.13
2018-09-12T02:33:05.453Z,2.90
2018-09-12T02:35:38.002Z,3.43
2018-09-12T02:38:07.435Z,3.40
2018-09-12T02:40:36.748Z,3.20
2018-09-12T02:43:06.107Z,3.07
2018-09-12T02:45:35.420Z,3.17
2018-09-12T02:48:04.736Z,3.00
2018-09-12T02:50:34.057Z,3.30
2018-09-12T02:53:03.378Z,2.73
2018-09-12T02:55:32.821Z,3.30
2018-09-12T02:58:02.122Z,3.20
2018-09-12T03:00:31.483Z,3.40
2018-09-12T03:03:00.816Z,3.13
2018-09-12T03:05:30.134Z,3.30
2018-09-12T03:07:59.673Z,3.40
2018-09-12T03:10:28.974Z,3.10
2018-09-12T03:12:58.269Z,3.17
2018-09-12T03:15:27.609Z,3.33
2018-09-12T03:17:56.978Z,3.40
2018-09-12T03:20:26.390Z,3.30
2018-09-12T03:22:55.708Z,3.20
2018-09-12T03:25:25.008Z,3.43
2018-09-12T03:27:54.333Z,3.00
2018-09-12T03:30:23.681Z,3.97
2018-09-12T03:32:52.985Z,3.33
2018-09-12T03:35:22.339Z,3.57
2018-09-12T03:37:51.656Z,3.40
2018-09-12T03:40:20.973Z,2.70
2018-09-12T03:42:50.285Z,3.27
2018-09-12T03:45:19.584Z,3.27
2018-09-12T03:47:48.928Z,3.37
2018-09-12T03:50:18.308Z,3.23
2018-09-12T03:52:47.607Z,3.20
2018-09-12T03:55:16.897Z,3.40
2018-09-12T03:57:46.397Z,3.40
2018-09-12T04:00:16.024Z,3.40
2018-09-12T04:02:45.560Z,3.20
2018-09-12T04:05:14.909Z,2.80
2018-09-12T04:07:44.268Z,3.30
2018-09-12T04:10:13.632Z,3.47
2018-09-12T04:12:42.984Z,3.40
2018-09-12T04:15:12.348Z,3.10
2018-09-12T04:17:41.776Z,3.47
2018-09-12T04:20:11.319Z,2.97
2018-09-12T04:22:40.713Z,3.70
2018-09-12T04:25:10.126Z,3.07
2018-09-12T04:27:39.689Z,4.33
2018-09-12T04:30:09.224Z,4.17
2018-09-12T04:32:38.638Z,4.17
2018-09-12T04:35:08.052Z,4.20
2018-09-12T04:37:37.437Z,4.27
2018-09-12T04:40:07.327Z,4.17
2018-09-12T04:42:36.774Z,3.97
2018-09-12T04:45:06.397Z,4.70
2018-09-12T04:47:35.823Z,5.37
2018-09-12T04:50:05.474Z,5.10
2018-09-12T04:52:34.889Z,5.20
2018-09-12T04:55:04.313Z,4.60
2018-09-12T04:57:33.697Z,4.53
2018-09-12T05:00:03.230Z,4.80
2018-09-12T05:02:32.750Z,4.27
2018-09-12T05:05:02.152Z,4.40
2018-09-12T05:07:31.537Z,4.10
2018-09-12T05:10:01.135Z,4.50
2018-09-12T05:12:30.599Z,4.30
2018-09-12T05:14:59.961Z,4.43
2018-09-12T05:17:29.407Z,4.17
2018-09-12T05:19:58.952Z,4.37
2018-09-12T05:22:28.421Z,4.17
2018-09-12T05:24:57.954Z,4.50
2018-09-12T05:27:27.444Z,4.30
2018-09-12T05:29:56.957Z,4.40
2018-09-12T05:32:26.341Z,4.27
2018-09-12T05:34:55.777Z,4.43
2018-09-12T05:37:25.236Z,4.33
2018-09-12T05:39:54.730Z,4.53
2018-09-12T05:42:24.269Z,4.10
2018-09-12T05:44:54.235Z,4.20
2018-09-12T05:47:23.669Z,4.17
2018-09-12T05:49:53.137Z,4.80
2018-09-12T05:52:22.714Z,4.60
2018-09-12T05:54:52.326Z,4.17
2018-09-12T05:57:21.780Z,4.47
2018-09-12T05:59:51.250Z,3.90
2018-09-12T06:02:20.798Z,4.33
2018-09-12T06:04:50.339Z,4.40
2018-09-12T06:07:19.734Z,3.90
2018-09-12T06:09:49.128Z,4.40
2018-09-12T06:12:18.767Z,3.93
2018-09-12T06:14:48.242Z,4.07
2018-09-12T06:17:17.728Z,4.33
2018-09-12T06:19:47.324Z,4.13
2018-09-12T06:22:16.737Z,4.10
2018-09-12T06:24:46.208Z,4.30
2018-09-12T06:27:15.601Z,3.80
2018-09-12T06:29:45.342Z,3.87
2018-09-12T06:32:14.857Z,4.00
2018-09-12T06:34:44.281Z,4.30
2018-09-12T06:37:13.827Z,4.37
2018-09-12T06:39:43.243Z,4.20
2018-09-12T06:42:13.786Z,3.80
2018-09-12T06:44:43.243Z,4.30
2018-09-12T06:47:12.928Z,3.70
2018-09-12T06:49:42.540Z,4.17
2018-09-12T06:52:12.093Z,3.97
2018-09-12T06:54:41.569Z,4.10
2018-09-12T06:57:11.045Z,3.83
2018-09-12T06:59:40.415Z,3.83
2018-09-12T07:02:10.005Z,3.77
2018-09-12T07:04:39.456Z,3.90
2018-09-12T07:07:08.995Z,4.13
2018-09-12T07:09:38.581Z,3.80
2018-09-12T07:12:08.299Z,3.90
2018-09-12T07:14:37.811Z,4.10
2018-09-12T07:17:07.201Z,4.30
2018-09-12T07:19:36.997Z,4.17
2018-09-12T07:22:06.445Z,3.83
2018-09-12T07:24:35.948Z,4.03
2018-09-12T07:27:05.338Z,4.03
2018-09-12T07:29:34.719Z,3.80
2018-09-12T07:32:04.300Z,3.93
2018-09-12T07:34:33.788Z,3.80
2018-09-12T07:37:03.294Z,3.53
2018-09-12T07:39:32.750Z,3.87
2018-09-12T07:42:02.349Z,3.77
2018-09-12T07:44:31.996Z,3.80
2018-09-12T07:47:01.478Z,3.97
2018-09-12T07:49:30.974Z,3.90
2018-09-12T07:52:00.520Z,3.77
2018-09-12T07:54:29.989Z,3.93
2018-09-12T07:56:59.438Z,3.50
2018-09-12T07:59:28.836Z,4.00
2018-09-12T08:01:58.325Z,3.93
2018-09-12T08:04:34.053Z,4.00
2018-09-12T08:07:03.461Z,3.57
2018-09-12T08:09:32.903Z,3.93
2018-09-12T08:12:02.496Z,3.70
2018-09-12T08:14:38.228Z,3.57
2018-09-12T08:17:07.856Z,3.50
2018-09-12T08:19:37.380Z,3.47
2018-09-12T08:22:07.056Z,3.50
2018-09-12T08:24:36.628Z,3.60
2018-09-12T08:27:06.041Z,3.50
2018-09-12T08:29:35.452Z,3.70
2018-09-12T08:32:05.036Z,3.27
2018-09-12T08:34:34.460Z,3.67
2018-09-12T08:37:03.894Z,3.77
2018-09-12T08:39:33.393Z,3.53
2018-09-12T08:42:02.986Z,3.70
2018-09-12T08:44:32.482Z,3.30
2018-09-12T08:47:01.956Z,3.30
2018-09-12T08:49:31.560Z,3.47
2018-09-12T08:52:01.190Z,3.20
2018-09-12T08:54:30.773Z,3.60
2018-09-12T08:57:00.177Z,3.70
2018-09-12T08:59:29.671Z,3.33
2018-09-12T09:01:59.229Z,3.70
2018-09-12T09:04:28.646Z,3.30
2018-09-12T09:06:58.144Z,3.60
2018-09-12T09:09:27.574Z,3.23
2018-09-12T09:11:57.206Z,3.67
2018-09-12T09:14:26.745Z,3.40
2018-09-12T09:16:56.254Z,3.50
2018-09-12T09:19:25.727Z,3.37
2018-09-12T09:21:55.165Z,3.17
2018-09-12T09:24:24.632Z,3.13
2018-09-12T09:26:54.443Z,3.17
2018-09-12T09:29:24.038Z,3.50
2018-09-12T09:31:53.559Z,3.50
2018-09-12T09:34:22.966Z,3.60
2018-09-12T09:36:52.354Z,3.60
2018-09-12T09:39:21.728Z,3.40
2018-09-12T09:41:51.224Z,3.20
2018-09-12T09:44:20.672Z,3.30
2018-09-12T09:46:50.119Z,3.53
2018-09-12T09:49:19.621Z,3.20
2018-09-12T09:51:49.185Z,3.03
2018-09-12T09:54:18.641Z,3.40
2018-09-12T09:56:48.311Z,3.13
2018-09-12T09:59:17.803Z,3.40
2018-09-12T10:01:52.338Z,3.30
2018-09-12T10:04:24.242Z,3.27
2018-09-12T10:06:59.078Z,3.63
2018-09-12T10:09:30.402Z,3.20
2018-09-12T10:12:01.137Z,3.60
2018-09-12T10:14:30.603Z,3.13
2018-09-12T10:17:00.087Z,3.07
2018-09-12T10:19:29.490Z,3.27
2018-09-12T10:21:59.015Z,3.60
2018-09-12T10:24:28.452Z,3.27
2018-09-12T10:26:57.876Z,3.67
2018-09-12T10:29:27.429Z,3.20
2018-09-12T10:31:56.933Z,3.20
2018-09-12T10:34:26.380Z,3.53
2018-09-12T10:36:55.778Z,3.33
2018-09-12T10:39:25.163Z,3.60
2018-09-12T10:41:54.954Z,3.23
2018-09-12T10:44:24.407Z,3.30
2018-09-12T10:46:53.881Z,3.33
2018-09-12T10:49:23.442Z,3.27
2018-09-12T10:51:52.996Z,3.80
2018-09-12T10:54:22.435Z,3.43
2018-09-12T10:56:51.834Z,3.10
2018-09-12T10:59:21.183Z,3.40
2018-09-12T11:01:50.619Z,3.70
2018-09-12T11:04:20.140Z,3.57
2018-09-12T11:06:49.550Z,3.47
2018-09-12T11:09:18.999Z,3.23
2018-09-12T11:11:48.617Z,3.63
2018-09-12T11:14:18.132Z,3.10
2018-09-12T11:16:47.697Z,3.30
2018-09-12T11:19:17.176Z,3.27
2018-09-12T11:21:46.779Z,3.67
2018-09-12T11:24:16.272Z,3.27
2018-09-12T11:26:45.773Z,3.60
2018-09-12T11:29:15.171Z,3.50
2018-09-12T11:31:44.648Z,3.23
2018-09-12T11:34:14.224Z,3.43
2018-09-12T11:36:43.692Z,3.00
2018-09-12T11:39:13.364Z,3.43
2018-09-12T11:41:42.797Z,3.43
2018-09-12T11:44:12.225Z,3.13
2018-09-12T11:46:41.721Z,3.53
2018-09-12T11:49:11.210Z,3.47
2018-09-12T11:51:40.843Z,3.50
2018-09-12T11:54:10.333Z,3.63
2018-09-12T11:56:39.764Z,3.30
2018-09-12T11:59:09.221Z,3.60
2018-09-12T12:01:38.789Z,3.77
2018-09-12T12:04:08.625Z,3.03
2018-09-12T12:06:38.042Z,3.27
2018-09-12T12:09:09.949Z,3.17
2018-09-12T12:11:40.330Z,3.50
2018-09-12T12:14:09.861Z,3.63
2018-09-12T12:16:39.410Z,3.20
2018-09-12T12:19:08.933Z,3.60
2018-09-12T12:21:38.476Z,3.53
2018-09-12T12:24:08.081Z,3.67
2018-09-12T12:26:37.577Z,3.60
2018-09-12T12:29:07.084Z,3.20
2018-09-12T12:31:36.526Z,3.30
2018-09-12T12:34:05.988Z,3.03
2018-09-12T12:36:35.383Z,3.13
2018-09-12T12:39:06.707Z,3.20
2018-09-12T12:41:36.301Z,3.33
2018-09-12T12:44:05.842Z,3.87
2018-09-12T12:46:35.236Z,3.63
2018-09-12T12:49:04.736Z,3.40
2018-09-12T12:51:34.301Z,3.07
2018-09-12T12:54:03.736Z,3.73
2018-09-12T12:56:33.101Z,3.60
2018-09-12T12:59:02.796Z,3.70
2018-09-12T13:01:32.305Z,3.70
2018-09-12T13:04:01.729Z,3.40
2018-09-12T13:06:31.202Z,3.40
2018-09-12T13:09:01.666Z,3.70
2018-09-12T13:11:31.197Z,3.40
2018-09-12T13:14:00.604Z,3.40
2018-09-12T13:16:30.019Z,3.47
2018-09-12T13:18:59.427Z,3.27
2018-09-12T13:21:28.941Z,3.17
2018-09-12T13:23:58.538Z,3.33
2018-09-12T13:26:28.079Z,3.70
2018-09-12T13:28:57.580Z,3.83
2018-09-12T13:31:27.222Z,3.40
2018-09-12T13:33:56.705Z,3.37
2018-09-12T13:36:26.207Z,3.53
2018-09-12T13:38:56.007Z,3.70
2018-09-12T13:41:25.481Z,3.50
2018-09-12T13:43:54.925Z,3.63
2018-09-12T13:46:24.300Z,3.67
2018-09-12T13:48:53.676Z,3.40
2018-09-12T13:51:23.180Z,3.53
2018-09-12T13:53:52.628Z,3.60
2018-09-12T13:56:22.110Z,3.60
2018-09-12T13:58:51.798Z,3.30
2018-09-12T14:01:21.347Z,3.50
2018-09-12T14:03:50.994Z,4.17
2018-09-12T14:06:20.478Z,3.50
2018-09-12T14:08:49.913Z,3.87
2018-09-12T14:11:19.359Z,3.67
2018-09-12T14:13:49.469Z,3.67
2018-09-12T14:16:18.848Z,3.77
2018-09-12T14:18:48.421Z,4.10
2018-09-12T14:21:17.964Z,3.57
2018-09-12T14:23:47.383Z,3.40
2018-09-12T14:26:16.835Z,3.50
2018-09-12T14:28:46.279Z,3.47
2018-09-12T14:31:15.964Z,3.63
2018-09-12T14:33:45.407Z,3.67
2018-09-12T14:36:14.865Z,3.83
2018-09-12T14:38:44.336Z,3.70
2018-09-12T14:41:13.777Z,3.90
2018-09-12T14:43:43.365Z,3.77
2018-09-12T14:46:13.010Z,3.50
2018-09-12T14:48:42.748Z,3.67
2018-09-12T14:51:12.259Z,3.60
2018-09-12T14:53:41.664Z,3.50
2018-09-12T14:56:11.117Z,3.80
2018-09-12T14:58:40.541Z,3.37
2018-09-12T15:01:09.965Z,3.43
2018-09-12T15:03:39.357Z,3.40
2018-09-12T15:06:08.785Z,3.80
2018-09-12T15:08:38.299Z,3.67
2018-09-12T15:11:07.885Z,3.33
2018-09-12T15:13:37.333Z,3.50
2018-09-12T15:16:06.864Z,3.67
2018-09-12T15:18:36.374Z,4.03
2018-09-12T15:21:05.909Z,3.87
2018-09-12T15:23:35.437Z,3.57
2018-09-12T15:26:04.977Z,3.57
2018-09-12T15:28:34.427Z,3.83
2018-09-12T15:31:03.948Z,3.97
2018-09-12T15:33:33.402Z,3.60
2018-09-12T15:36:02.868Z,3.57
2018-09-12T15:38:32.294Z,3.80
2018-09-12T15:41:01.877Z,3.60
2018-09-12T15:43:31.275Z,3.53
2018-09-12T15:46:00.793Z,3.50
2018-09-12T15:48:30.253Z,2.90
2018-09-12T15:50:59.994Z,3.57
2018-09-12T15:53:29.769Z,3.60
2018-09-12T15:55:59.296Z,3.50
2018-09-12T15:58:28.704Z,3.33
2018-09-12T16:00:58.265Z,3.43
2018-09-12T16:03:27.733Z,3.13
2018-09-12T16:05:57.173Z,3.60
2018-09-12T16:08:26.656Z,3.70
2018-09-12T16:10:56.208Z,3.73
2018-09-12T16:13:25.964Z,3.60
2018-09-12T16:15:55.380Z,3.53
2018-09-12T16:18:24.800Z,3.47
2018-09-12T16:20:54.309Z,3.57
2018-09-12T16:23:23.895Z,3.27
2018-09-12T16:25:53.354Z,3.77
2018-09-12T16:28:22.848Z,3.57
2018-09-12T16:30:52.333Z,3.00
2018-09-12T16:33:21.799Z,3.40
2018-09-12T16:35:51.241Z,3.43
2018-09-12T16:38:20.719Z,3.10
2018-09-12T16:40:50.260Z,3.33
2018-09-12T16:43:19.776Z,3.37
2018-09-12T16:45:49.260Z,3.40
2018-09-12T16:48:18.708Z,3.57
2018-09-12T16:50:48.140Z,3.23
2018-09-12T16:53:17.637Z,3.50
2018-09-12T16:55:47.381Z,3.60
2018-09-12T17:01:58.338Z,3.00
2018-09-12T17:04:27.730Z,2.63
2018-09-12T17:06:57.196Z,3.47
2018-09-12T17:09:26.584Z,3.50
2018-09-12T17:11:56.014Z,3.70
2018-09-12T17:14:25.517Z,3.33
2018-09-12T17:16:55.149Z,3.73
2018-09-12T17:19:24.545Z,3.97
2018-09-12T17:21:54.047Z,3.40
2018-09-12T17:24:23.463Z,3.43
2018-09-12T17:26:52.969Z,3.53
2018-09-12T17:29:22.405Z,3.60
2018-09-12T17:31:51.947Z,3.67
2018-09-12T17:34:21.334Z,3.47
2018-09-12T17:36:50.858Z,3.43
2018-09-12T17:39:20.394Z,3.77
2018-09-12T17:41:50.050Z,3.13
2018-09-12T17:44:21.076Z,3.80
2018-09-12T17:46:50.625Z,3.60
2018-09-12T17:49:20.203Z,4.53
2018-09-12T17:51:49.709Z,3.50
2018-09-12T17:54:19.347Z,3.30
2018-09-12T17:56:48.824Z,3.20
2018-09-12T17:59:18.404Z,3.23
2018-09-12T18:01:47.901Z,3.07
2018-09-12T18:04:17.274Z,2.97
2018-09-12T18:06:46.689Z,3.10
2018-09-12T18:09:16.174Z,3.47
2018-09-12T18:15:06.678Z,3.70
2018-09-12T18:17:36.118Z,4.10
2018-09-12T18:20:05.632Z,3.77
2018-09-12T18:22:35.131Z,4.07
2018-09-12T18:25:04.683Z,4.00
2018-09-12T18:27:34.198Z,4.00
2018-09-12T18:30:03.684Z,4.07
2018-09-12T18:32:33.209Z,4.17
2018-09-12T18:35:02.676Z,4.60
2018-09-12T18:37:32.071Z,4.40
2018-09-12T18:40:01.601Z,4.73
2018-09-12T18:42:31.041Z,5.07
2018-09-12T18:45:00.570Z,4.63
2018-09-12T18:47:30.194Z,4.90
2018-09-12T18:49:59.645Z,5.53
2018-09-12T18:52:29.051Z,4.83
2018-09-12T18:54:58.461Z,5.17
2018-09-12T18:57:27.836Z,4.80
2018-09-12T18:59:57.462Z,5.37
2018-09-12T19:02:27.767Z,5.47
2018-09-12T19:04:57.199Z,5.43
2018-09-12T19:07:26.649Z,5.30
2018-09-12T19:09:56.073Z,5.13
2018-09-12T19:12:25.536Z,6.00
2018-09-12T19:14:55.093Z,4.90
2018-09-12T19:17:24.476Z,5.50
2018-09-12T19:19:53.935Z,4.90
2018-09-12T19:22:23.400Z,5.07
2018-09-12T19:24:52.908Z,5.10
2018-09-12T19:27:22.310Z,5.53
2018-09-12T19:29:51.845Z,4.67
2018-09-12T19:32:21.246Z,5.60
2018-09-12T19:34:50.687Z,5.50
2018-09-12T19:37:20.145Z,5.40
2018-09-12T19:39:49.584Z,5.90
2018-09-12T19:42:18.962Z,5.27
2018-09-12T19:44:48.366Z,5.33
2018-09-12T19:47:17.700Z,5.17
2018-09-12T19:49:47.000Z,4.77
2018-09-12T19:52:16.464Z,4.90
2018-09-12T19:54:45.894Z,5.57
2018-09-12T19:57:15.191Z,5.37
2018-09-12T19:59:44.493Z,5.30
2018-09-12T20:02:19.275Z,5.40
2018-09-12T20:04:48.596Z,5.07
2018-09-12T20:07:18.306Z,5.13
2018-09-12T20:09:47.715Z,5.43
2018-09-12T20:12:17.031Z,4.80
2018-09-12T20:14:46.360Z,5.30
2018-09-12T20:17:15.688Z,4.90
2018-09-12T20:19:45.058Z,5.90
2018-09-12T20:22:14.461Z,4.83
2018-09-12T20:24:44.338Z,5.37
2018-09-12T20:27:13.708Z,5.00
2018-09-12T20:29:44.352Z,5.30
2018-09-12T20:32:13.689Z,5.60
2018-09-12T20:34:42.985Z,4.80
2018-09-12T20:37:13.007Z,5.00
2018-09-12T20:39:42.404Z,4.60
2018-09-12T20:42:11.809Z,5.43
2018-09-12T20:44:41.297Z,5.10
2018-09-12T20:47:10.670Z,4.83
2018-09-12T20:49:40.123Z,4.87
2018-09-12T20:52:09.608Z,4.93
2018-09-12T20:54:38.944Z,5.10
2018-09-12T20:57:08.553Z,4.70
2018-09-12T20:59:37.864Z,5.17
2018-09-12T21:02:07.617Z,4.93
2018-09-12T21:04:37.004Z,4.93
2018-09-12T21:07:06.382Z,5.07
2018-09-12T21:09:35.724Z,4.40
2018-09-12T21:12:05.160Z,4.87
2018-09-12T21:14:34.476Z,4.97
2018-09-12T21:17:03.754Z,4.50
2018-09-12T21:19:33.058Z,4.77
2018-09-12T21:22:02.487Z,4.70
2018-09-12T21:24:31.881Z,4.53
2018-09-12T21:27:01.192Z,5.23
2018-09-12T21:29:30.496Z,4.77
2018-09-12T21:31:59.897Z,4.70
2018-09-12T21:34:29.302Z,4.23
2018-09-12T21:36:58.598Z,4.50
2018-09-12T21:39:28.027Z,4.33
2018-09-12T21:41:57.377Z,4.80
2018-09-12T21:44:26.727Z,4.80
2018-09-12T21:46:56.058Z,4.70
2018-09-12T21:49:25.385Z,4.33
2018-09-12T21:51:54.870Z,4.67
2018-09-12T21:54:24.253Z,4.50
2018-09-12T21:56:53.565Z,4.30
2018-09-12T21:59:22.887Z,4.17
2018-09-12T22:01:52.285Z,5.00
2018-09-12T22:04:21.584Z,4.30
2018-09-12T22:06:50.889Z,4.50
2018-09-12T22:09:20.184Z,4.47
2018-09-12T22:11:49.588Z,4.70
2018-09-12T22:14:18.913Z,4.83
2018-09-12T22:16:48.570Z,4.40
2018-09-12T22:19:17.856Z,4.43
2018-09-12T22:21:47.198Z,4.50
2018-09-12T22:24:16.512Z,4.43
2018-09-12T22:26:45.834Z,4.60
2018-09-12T22:29:15.165Z,4.87
2018-09-12T22:31:44.590Z,4.23
2018-09-12T22:34:13.903Z,4.27
2018-09-12T22:36:43.239Z,4.97
2018-09-12T22:39:12.818Z,4.40
2018-09-12T22:41:42.217Z,4.60
2018-09-12T22:44:11.601Z,4.17
2018-09-12T22:46:41.006Z,4.30
2018-09-12T22:49:10.409Z,4.23
2018-09-12T22:51:39.724Z,4.57
2018-09-12T22:54:09.030Z,4.33
2018-09-12T22:56:38.329Z,4.57
2018-09-12T22:59:07.665Z,4.33
2018-09-12T23:01:37.085Z,4.40
2018-09-12T23:04:06.413Z,4.40
2018-09-12T23:06:35.712Z,4.03
2018-09-12T23:09:07.273Z,4.43
2018-09-12T23:11:36.575Z,4.40
2018-09-12T23:14:06.094Z,4.17
2018-09-12T23:16:35.425Z,4.83
2018-09-12T23:19:11.328Z,4.43
2018-09-12T23:21:40.703Z,4.60
2018-09-12T23:24:10.033Z,4.37
2018-09-12T23:26:39.387Z,4.50
2018-09-12T23:29:08.684Z,4.47
2018-09-12T23:31:38.158Z,4.50
2018-09-12T23:34:07.611Z,4.23
2018-09-12T23:36:36.894Z,4.17
2018-09-12T23:39:09.541Z,4.00
2018-09-12T23:41:38.965Z,4.30
2018-09-12T23:44:08.549Z,4.20
2018-09-12T23:46:37.936Z,4.07
2018-09-12T23:49:08.028Z,4.20
2018-09-12T23:51:37.821Z,4.13
2018-09-12T23:54:07.495Z,4.10
2018-09-12T23:56:36.847Z,3.80
2018-09-12T23:59:06.704Z,4.50
